Auke Bay, Alaska
Current Conditions -  °F | °C
As of 7:53 PM on Saturday 25 Oct 2014 (Local Time) from PAJN Reporting Station
Few Clouds Few Clouds  
Wind Chill: 35°   Ceiling: Unl
Heat Index: 35°   Visibility: 10mi
Dew Point: 34°   Wind: 0mph
Humidity: 96%   Direction: NA
Pressure: 29.69"   Gusts: NA
Location:  58.38°N, 134.67°W
Report Text: PAJN 260353Z 00000KT 10SM FEW003 02/01 A2969 RMK AO2 SLP055 T00170011 $
Loading
Personal Weather Stations






























Interactive Weather Map New forecast layout! Learn more

10-Day Weather Forecast

Advertisements
Track Severe Weather on mobile